Time;durP1;ratioP1;P1;durP2;ratioP2;P2;SDS_P1;SDS_P2;PMS_P1;PMS_P2;Temp;Humidity;BMP_temperature;BMP_pressure;BME280_temperature;BME280_humidity;BME280_pressure;Samples;Min_cycle;Max_cycle;Signal;HPM_P1;HPM_P2
2023/08/19 00:00:17;;;;;;;4.07;3.50;;;;;;;20.84;100.00;96525.34;5042328;28;20222;-64
2023/08/19 00:02:44;;;;;;;4.22;3.60;;;;;;;20.79;100.00;96527.84;5042053;28;20266;-64
2023/08/19 00:05:11;;;;;;;8.05;3.97;;;;;;;20.79;100.00;96529.72;5043063;28;20209;-64
2023/08/19 00:07:38;;;;;;;5.20;3.60;;;;;;;20.79;100.00;96522.47;5042792;28;20222;-65
2023/08/19 00:10:05;;;;;;;4.32;3.85;;;;;;;20.77;100.00;96524.53;5043137;28;20214;-64
2023/08/19 00:12:32;;;;;;;3.78;3.50;;;;;;;20.76;100.00;96522.88;5041478;28;20200;-63
2023/08/19 00:15:00;;;;;;;5.25;3.63;;;;;;;20.77;100.00;96521.00;5042853;28;20241;-62
2023/08/19 00:17:26;;;;;;;5.53;4.00;;;;;;;20.74;100.00;96519.56;5042342;28;20210;-65
2023/08/19 00:19:53;;;;;;;6.07;4.20;;;;;;;20.74;100.00;96516.88;5042732;28;20203;-65
2023/08/19 00:22:30;;;;;;;4.72;4.10;;;;;;;20.70;100.00;96512.97;5047411;28;20196;-63
2023/08/19 00:24:57;;;;;;;4.75;3.95;;;;;;;20.63;100.00;96525.56;5041432;28;20633;-63
2023/08/19 00:27:23;;;;;;;7.03;4.18;;;;;;;20.64;100.00;96524.56;5041159;28;20627;-62
2023/08/19 00:29:50;;;;;;;4.70;4.00;;;;;;;20.62;100.00;96521.22;5023200;28;20653;-64
2023/08/19 00:32:18;;;;;;;6.75;3.78;;;;;;;20.55;100.00;96515.03;5040851;28;20223;-63
2023/08/19 00:34:45;;;;;;;8.98;3.65;;;;;;;20.54;100.00;96524.16;5041029;28;20230;-63
2023/08/19 00:37:12;;;;;;;5.18;3.75;;;;;;;20.51;100.00;96524.53;5040497;28;20519;-64
2023/08/19 00:39:39;;;;;;;4.68;3.50;;;;;;;20.54;100.00;96526.84;5042077;28;20227;-63
2023/08/19 00:42:07;;;;;;;7.72;3.78;;;;;;;20.59;100.00;96532.41;5040615;28;20209;-62
2023/08/19 00:44:34;;;;;;;7.40;3.65;;;;;;;20.53;100.00;96527.88;5045075;28;20203;-65
2023/08/19 00:47:01;;;;;;;6.60;3.65;;;;;;;20.47;100.00;96533.25;5045156;28;20214;-65
2023/08/19 00:49:29;;;;;;;4.97;3.63;;;;;;;20.42;100.00;96536.56;5048155;28;20203;-63
2023/08/19 00:51:56;;;;;;;5.78;2.97;;;;;;;20.39;100.00;96531.59;5057668;28;20204;-63
2023/08/19 00:54:22;;;;;;;3.92;3.50;;;;;;;20.36;100.00;96537.38;5053147;28;20227;-65
2023/08/19 00:56:49;;;;;;;4.97;3.35;;;;;;;20.37;100.00;96533.66;5049466;28;20206;-62
2023/08/19 00:59:15;;;;;;;5.53;3.35;;;;;;;20.35;100.00;96541.09;5046222;28;20218;-62
2023/08/19 01:01:42;;;;;;;4.60;3.53;;;;;;;20.26;100.00;96537.75;5044648;28;20861;-64
2023/08/19 01:04:09;;;;;;;3.60;3.30;;;;;;;20.28;100.00;96534.91;5045225;28;20245;-64
2023/08/19 01:06:42;;;;;;;4.47;3.20;;;;;;;20.27;100.00;96543.94;5045245;28;20207;-64
2023/08/19 01:09:17;;;;;;;4.28;3.60;;;;;;;20.18;100.00;96542.50;5044613;28;20229;-63
2023/08/19 01:11:55;;;;;;;7.97;3.80;;;;;;;20.14;100.00;96533.19;5044570;28;20205;-63
2023/08/19 01:15:03;;;;;;;5.50;4.10;;;;;;;20.03;100.00;96540.00;5044852;28;20325;-64
2023/08/19 01:17:33;;;;;;;5.63;3.65;;;;;;;20.05;100.00;96537.94;5045659;28;21354;-63
2023/08/19 01:20:00;;;;;;;5.22;3.40;;;;;;;20.00;100.00;96543.09;5045194;28;20200;-64
2023/08/19 01:22:37;;;;;;;8.45;3.85;;;;;;;20.00;100.00;96540.41;5044895;28;20207;-64
2023/08/19 01:25:07;;;;;;;5.07;3.45;;;;;;;20.00;100.00;96540.41;5045624;28;20206;-66
2023/08/19 01:27:34;;;;;;;4.45;4.05;;;;;;;19.95;100.00;96544.72;5043728;28;20559;-63
2023/08/19 01:30:00;;;;;;;5.55;4.03;;;;;;;19.90;100.00;96541.84;5044418;28;20628;-65
2023/08/19 01:32:27;;;;;;;4.35;3.45;;;;;;;19.85;100.00;96545.97;5045885;28;20203;-64
2023/08/19 01:34:54;;;;;;;6.68;3.80;;;;;;;19.88;100.00;96548.22;5046166;28;20227;-63
2023/08/19 01:37:28;;;;;;;6.93;3.58;;;;;;;19.83;100.00;96548.03;5044613;28;20218;-63
2023/08/19 01:39:56;;;;;;;5.53;3.40;;;;;;;19.84;100.00;96552.34;5046628;28;20199;-64
2023/08/19 01:42:25;;;;;;;3.85;3.47;;;;;;;19.79;100.00;96556.69;5045590;28;20210;-64
2023/08/19 01:44:51;;;;;;;5.63;3.70;;;;;;;19.80;100.00;96553.78;5046337;28;20200;-64
2023/08/19 01:47:18;;;;;;;6.22;5.03;;;;;;;19.77;100.00;96554.19;5044447;28;20639;-63
2023/08/19 01:49:46;;;;;;;4.65;3.67;;;;;;;19.81;100.00;96558.13;5044177;28;20234;-63
2023/08/19 01:52:14;;;;;;;6.88;3.75;;;;;;;19.80;100.00;96559.16;5044435;28;20200;-63
2023/08/19 01:54:41;;;;;;;7.10;3.90;;;;;;;19.69;100.00;96562.44;5042967;28;20663;-63
2023/08/19 01:57:09;;;;;;;8.43;3.63;;;;;;;19.75;100.00;96556.25;5044723;28;20210;-63
2023/08/19 01:59:37;;;;;;;4.20;3.70;;;;;;;19.74;100.00;96559.13;5043709;28;20204;-63
2023/08/19 02:02:04;;;;;;;4.00;3.63;;;;;;;19.74;100.00;96559.97;5043852;28;20212;-63
2023/08/19 02:04:31;;;;;;;4.93;3.30;;;;;;;19.73;100.00;96560.97;5043904;28;20227;-64
2023/08/19 02:06:57;;;;;;;3.85;3.22;;;;;;;19.74;100.00;96557.28;5045025;28;20208;-62
2023/08/19 02:09:24;;;;;;;5.18;3.63;;;;;;;19.72;100.00;96558.53;5043259;28;20230;-64
2023/08/19 02:11:50;;;;;;;8.23;3.65;;;;;;;19.72;100.00;96559.34;5043133;28;20203;-63
2023/08/19 02:14:17;;;;;;;4.90;3.88;;;;;;;19.69;100.00;96561.59;5045838;28;20230;-64
2023/08/19 02:16:44;;;;;;;5.60;3.72;;;;;;;19.64;100.00;96559.53;5053098;28;20211;-63
2023/08/19 02:19:11;;;;;;;4.13;3.53;;;;;;;19.61;100.00;96567.97;5051184;28;20238;-62
2023/08/19 02:21:38;;;;;;;4.32;3.80;;;;;;;19.51;100.00;96570.22;5044358;28;20535;-62
2023/08/19 02:24:05;;;;;;;5.10;3.38;;;;;;;19.53;100.00;96568.13;5043820;28;20199;-63
2023/08/19 02:26:31;;;;;;;4.90;3.47;;;;;;;19.57;100.00;96569.41;5044915;28;20212;-63
2023/08/19 02:28:58;;;;;;;6.15;3.88;;;;;;;19.61;100.00;96570.66;5043257;28;20212;-64
2023/08/19 02:31:26;;;;;;;5.78;4.05;;;;;;;19.59;100.00;96570.00;5044755;28;20217;-64
2023/08/19 02:33:54;;;;;;;5.35;3.70;;;;;;;19.58;100.00;96570.22;5052879;28;20299;-64
2023/08/19 02:36:21;;;;;;;4.63;3.47;;;;;;;19.50;100.00;96573.06;5053536;28;20218;-63
2023/08/19 02:38:49;;;;;;;5.88;3.60;;;;;;;19.49;100.00;96572.25;5048765;28;20270;-62
2023/08/19 02:41:15;;;;;;;4.80;3.85;;;;;;;19.45;100.00;96565.63;5043303;28;20215;-64
2023/08/19 02:43:42;;;;;;;5.82;3.72;;;;;;;19.49;100.00;96574.94;5044477;28;20204;-62
2023/08/19 02:46:09;;;;;;;4.75;3.42;;;;;;;19.43;100.00;96572.22;5044213;28;20199;-63
2023/08/19 02:48:36;;;;;;;4.47;3.92;;;;;;;19.37;100.00;96573.81;5042390;28;20234;-63
2023/08/19 02:51:04;;;;;;;6.30;3.83;;;;;;;19.41;100.00;96569.75;5042697;28;20207;-63
2023/08/19 02:53:31;;;;;;;5.22;3.67;;;;;;;19.39;100.00;96561.88;5043068;28;20553;-63
2023/08/19 02:55:58;;;;;;;3.78;3.33;;;;;;;19.36;100.00;96572.16;5043890;28;20223;-63
2023/08/19 02:58:25;;;;;;;5.50;3.88;;;;;;;19.32;100.00;96565.53;5046045;28;20248;-65
2023/08/19 03:00:52;;;;;;;4.40;3.78;;;;;;;19.35;100.00;96575.88;5061716;28;20199;-63
2023/08/19 03:03:18;;;;;;;6.10;3.90;;;;;;;19.30;100.00;96579.16;5060339;28;20242;-64
2023/08/19 03:05:45;;;;;;;4.15;3.35;;;;;;;19.32;100.00;96579.78;5048508;28;20218;-64
2023/08/19 03:08:13;;;;;;;4.68;3.70;;;;;;;19.30;100.00;96576.50;5042947;28;20207;-64
2023/08/19 03:10:41;;;;;;;5.10;3.40;;;;;;;19.27;100.00;96573.38;5043178;28;20203;-63
2023/08/19 03:13:09;;;;;;;4.55;3.55;;;;;;;19.26;100.00;96577.06;5042510;28;20203;-63
2023/08/19 03:15:38;;;;;;;4.35;3.75;;;;;;;19.24;100.00;96579.09;5042901;28;20293;-62
2023/08/19 03:18:07;;;;;;;4.18;3.40;;;;;;;19.21;100.00;96584.88;5043566;28;20218;-63
2023/08/19 03:20:35;;;;;;;4.35;3.47;;;;;;;19.15;100.00;96581.13;5043417;28;20203;-63
2023/08/19 03:23:02;;;;;;;4.82;3.28;;;;;;;19.21;100.00;96584.88;5042449;28;20656;-65
2023/08/19 03:25:30;;;;;;;6.72;3.63;;;;;;;19.23;100.00;96585.50;5042864;28;20214;-65
2023/08/19 03:27:57;;;;;;;5.13;3.80;;;;;;;19.20;100.00;96596.63;5042238;28;20214;-63
2023/08/19 03:30:23;;;;;;;4.38;3.70;;;;;;;19.20;100.00;96588.59;5041970;28;20208;-65
2023/08/19 03:32:50;;;;;;;5.18;3.80;;;;;;;19.13;100.00;96588.53;5041878;28;20204;-64
2023/08/19 03:35:17;;;;;;;11.85;4.35;;;;;;;19.16;100.00;96592.69;5041274;28;20227;-63
2023/08/19 03:37:43;;;;;;;4.97;4.10;;;;;;;19.13;100.00;96596.56;5042019;28;20207;-63
2023/08/19 03:40:10;;;;;;;7.05;3.60;;;;;;;19.14;100.00;96592.03;5041678;28;20202;-63
2023/08/19 03:42:39;;;;;;;4.43;3.35;;;;;;;19.11;100.00;96601.31;5042326;28;20200;-64
2023/08/19 03:45:06;;;;;;;5.78;3.83;;;;;;;19.12;100.00;96602.16;5042540;28;20199;-63
2023/08/19 03:47:33;;;;;;;5.00;3.45;;;;;;;19.06;100.00;96608.31;5042445;28;20207;-64
2023/08/19 03:50:00;;;;;;;4.68;3.80;;;;;;;19.08;100.00;96611.59;5042511;28;20215;-63
2023/08/19 03:52:27;;;;;;;4.65;3.72;;;;;;;19.01;100.00;96611.56;5042111;28;20207;-63
2023/08/19 03:54:54;;;;;;;4.28;3.88;;;;;;;18.97;100.00;96612.16;5041751;28;20234;-62
2023/08/19 03:57:20;;;;;;;4.43;3.70;;;;;;;18.95;100.00;96614.22;5041529;28;20214;-62
2023/08/19 03:59:51;;;;;;;6.05;3.70;;;;;;;18.96;100.00;96618.53;5041341;28;20560;-62
2023/08/19 04:02:17;;;;;;;5.22;3.83;;;;;;;18.92;100.00;96633.38;5041644;28;20204;-63
2023/08/19 04:04:57;;;;;;;4.68;3.90;;;;;;;18.86;100.00;96625.06;5041546;28;20234;-63
2023/08/19 04:07:23;;;;;;;4.13;3.60;;;;;;;18.85;100.00;96625.25;5041785;28;20187;-62
2023/08/19 04:09:50;;;;;;;5.25;3.95;;;;;;;18.86;100.00;96627.75;5041965;28;20640;-64
2023/08/19 04:12:16;;;;;;;4.78;4.00;;;;;;;18.85;100.00;96630.59;5040426;28;20231;-64
2023/08/19 04:14:43;;;;;;;4.45;3.83;;;;;;;18.86;100.00;96634.94;5042254;28;20223;-63
2023/08/19 04:17:11;;;;;;;6.00;4.35;;;;;;;18.82;100.00;96634.50;5041947;28;20215;-62
2023/08/19 04:19:37;;;;;;;4.15;3.75;;;;;;;18.83;100.00;96627.31;5040958;28;20210;-63
2023/08/19 04:22:04;;;;;;;4.05;3.67;;;;;;;18.80;100.00;96631.22;5041084;28;20203;-64
2023/08/19 04:24:32;;;;;;;5.72;4.13;;;;;;;18.76;100.00;96624.59;5041785;28;20195;-62
2023/08/19 04:26:59;;;;;;;4.47;4.00;;;;;;;18.74;100.00;96631.97;5040373;28;20703;-63
2023/08/19 04:29:26;;;;;;;5.80;3.90;;;;;;;18.76;100.00;96637.97;5041590;28;20210;-62
2023/08/19 04:31:55;;;;;;;5.10;3.97;;;;;;;18.76;100.00;96637.97;5042219;28;20227;-64
2023/08/19 04:34:22;;;;;;;4.93;3.83;;;;;;;18.74;100.00;96645.38;5041587;28;20229;-64
2023/08/19 04:36:49;;;;;;;5.50;3.72;;;;;;;18.75;100.00;96644.34;5041117;28;20208;-62
2023/08/19 04:39:15;;;;;;;6.35;4.20;;;;;;;18.75;100.00;96652.38;5041766;28;20223;-63
2023/08/19 04:41:42;;;;;;;6.22;3.85;;;;;;;18.77;100.00;96653.03;5040094;28;20212;-63
2023/08/19 04:44:10;;;;;;;4.68;3.67;;;;;;;18.79;100.00;96656.34;5041387;28;20211;-62
2023/08/19 04:46:37;;;;;;;4.97;4.47;;;;;;;18.74;100.00;96655.28;5040674;28;20257;-62
2023/08/19 04:49:05;;;;;;;5.03;3.88;;;;;;;18.79;100.00;96652.81;5041078;28;20219;-63
2023/08/19 04:51:33;;;;;;;3.90;3.60;;;;;;;18.81;100.00;96654.28;5041244;28;20207;-64
2023/08/19 04:53:59;;;;;;;7.32;3.65;;;;;;;18.76;100.00;96655.91;5041632;28;20230;-63
2023/08/19 04:56:26;;;;;;;4.15;3.63;;;;;;;18.83;100.00;96657.63;5040949;28;20560;-63
2023/08/19 04:58:54;;;;;;;4.45;4.00;;;;;;;18.85;100.00;96665.44;5041093;28;20199;-63
2023/08/19 05:01:21;;;;;;;6.47;3.70;;;;;;;18.90;100.00;96663.03;5042312;28;20640;-64
2023/08/19 05:03:47;;;;;;;5.53;3.88;;;;;;;18.94;100.00;96668.81;5044235;28;20239;-63
2023/08/19 05:06:14;;;;;;;5.53;4.00;;;;;;;19.04;100.00;96663.94;5041460;28;20195;-62
2023/08/19 05:08:42;;;;;;;4.18;3.75;;;;;;;19.06;100.00;96662.72;5041871;28;20208;-62
2023/08/19 05:11:10;;;;;;;5.95;4.00;;;;;;;19.15;100.00;96671.44;5054217;28;20211;-64
2023/08/19 05:13:39;;;;;;;5.35;3.90;;;;;;;19.19;100.00;96662.00;5058513;28;20207;-64
2023/08/19 05:16:07;;;;;;;8.20;7.20;;;;;;;19.20;100.00;96663.66;5049572;28;20231;-62
2023/08/19 05:18:34;;;;;;;5.30;4.43;;;;;;;19.26;100.00;96663.72;5042960;28;20647;-62
2023/08/19 05:21:00;;;;;;;4.25;3.65;;;;;;;19.33;100.00;96667.25;5041340;28;20215;-64
2023/08/19 05:23:28;;;;;;;4.32;3.70;;;;;;;19.43;100.00;96674.97;5042204;28;20206;-64
2023/08/19 05:25:55;;;;;;;7.93;4.43;;;;;;;19.56;100.00;96676.88;5041738;28;20864;-63
2023/08/19 05:28:22;;;;;;;5.78;3.95;;;;;;;19.63;100.00;96675.91;5042312;28;20212;-63
2023/08/19 05:30:48;;;;;;;6.38;3.85;;;;;;;19.73;100.00;96680.94;5054696;28;20214;-62
2023/08/19 05:33:15;;;;;;;4.47;3.97;;;;;;;19.90;100.00;96681.41;5068552;28;20213;-63
2023/08/19 05:35:42;;;;;;;5.15;4.18;;;;;;;20.01;100.00;96688.88;5065845;28;20211;-63
2023/08/19 05:38:08;;;;;;;7.00;4.38;;;;;;;20.14;100.00;96694.28;5069475;28;20220;-65
2023/08/19 05:40:35;;;;;;;5.78;4.30;;;;;;;20.34;100.00;96692.53;5066275;28;20200;-64
2023/08/19 05:43:03;;;;;;;4.68;4.10;;;;;;;20.44;100.00;96692.97;5067540;28;20206;-65
2023/08/19 05:45:29;;;;;;;6.30;4.45;;;;;;;20.76;100.00;96699.44;5066676;28;20238;-64
2023/08/19 05:47:56;;;;;;;6.55;4.72;;;;;;;21.09;100.00;96694.91;5066695;28;20188;-64
2023/08/19 05:50:22;;;;;;;4.90;4.50;;;;;;;21.29;100.00;96692.25;5067395;28;20209;-65
2023/08/19 05:52:49;;;;;;;4.80;4.30;;;;;;;21.53;100.00;96691.59;5045835;28;20636;-62
2023/08/19 05:55:16;;;;;;;5.53;5.03;;;;;;;21.72;100.00;96701.47;5047202;28;20235;-62
2023/08/19 05:57:44;;;;;;;6.47;5.05;;;;;;;21.91;100.00;96702.47;5056215;28;20208;-63
2023/08/19 06:00:13;;;;;;;5.95;5.10;;;;;;;22.18;100.00;96701.31;5056104;28;20219;-64
2023/08/19 06:02:39;;;;;;;8.57;5.05;;;;;;;22.38;100.00;96706.63;5054035;28;20208;-64
2023/08/19 06:05:06;;;;;;;5.30;4.82;;;;;;;22.61;100.00;96719.56;5057817;28;20199;-62
2023/08/19 06:07:33;;;;;;;7.20;5.15;;;;;;;22.75;100.00;96713.91;5054654;28;20207;-64
2023/08/19 06:10:00;;;;;;;10.40;5.50;;;;;;;22.97;100.00;96711.66;5057220;28;20227;-62
2023/08/19 06:12:26;;;;;;;9.98;5.10;;;;;;;23.14;99.13;96703.84;5050210;28;20219;-65
2023/08/19 06:14:53;;;;;;;7.15;4.88;;;;;;;23.42;97.19;96716.97;5053913;28;20586;-64
2023/08/19 06:17:21;;;;;;;5.53;5.00;;;;;;;23.57;96.06;96715.53;5057101;28;20269;-62
2023/08/19 06:19:47;;;;;;;4.78;4.28;;;;;;;23.70;96.75;96717.31;5053427;28;20204;-64
2023/08/19 06:22:14;;;;;;;5.25;4.18;;;;;;;23.97;94.89;96713.25;5053673;28;20234;-66
2023/08/19 06:24:40;;;;;;;6.55;4.65;;;;;;;24.13;92.16;96709.13;5053759;28;20223;-64
2023/08/19 06:27:07;;;;;;;5.75;4.30;;;;;;;24.32;89.05;96721.59;5053553;28;20214;-64
2023/08/19 06:29:33;;;;;;;5.50;4.47;;;;;;;24.51;87.43;96720.53;5050240;28;20212;-64
2023/08/19 06:32:00;;;;;;;7.53;4.25;;;;;;;24.72;88.17;96717.31;5051558;28;20207;-64
2023/08/19 06:34:29;;;;;;;5.38;4.22;;;;;;;24.97;86.31;96729.88;5050927;28;20287;-63
2023/08/19 06:37:01;;;;;;;5.22;4.18;;;;;;;25.25;86.56;96725.47;5049113;28;20223;-63
2023/08/19 06:39:28;;;;;;;5.40;4.07;;;;;;;25.38;84.88;96723.59;5045847;28;20195;-63
2023/08/19 06:42:00;;;;;;;7.50;4.40;;;;;;;25.62;84.99;96728.81;5049860;28;20306;-63
2023/08/19 06:44:29;;;;;;;5.00;3.90;;;;;;;25.88;82.23;96737.53;5046018;28;20260;-64
2023/08/19 06:46:57;;;;;;;5.80;4.20;;;;;;;26.06;83.52;96735.53;5043055;28;20204;-63
2023/08/19 06:49:24;;;;;;;5.13;4.10;;;;;;;26.22;81.83;96731.25;5042903;28;20206;-66
2023/08/19 06:51:53;;;;;;;5.55;3.92;;;;;;;26.32;80.38;96739.63;5043438;28;20203;-62
2023/08/19 06:54:20;;;;;;;4.05;3.65;;;;;;;26.29;77.81;96742.78;5042509;28;20282;-66
2023/08/19 06:56:49;;;;;;;6.07;3.90;;;;;;;26.63;78.37;96741.88;5040209;28;20232;-62
2023/08/19 06:59:20;;;;;;;4.28;3.78;;;;;;;26.81;77.31;96742.75;5042811;28;20211;-65
2023/08/19 07:01:51;;;;;;;5.05;3.60;;;;;;;27.10;75.88;96749.84;5042510;28;20210;-64
2023/08/19 07:04:20;;;;;;;6.72;3.70;;;;;;;27.33;76.65;96741.56;5041908;28;20245;-63
2023/08/19 07:06:48;;;;;;;5.00;3.58;;;;;;;27.12;73.85;96745.00;5041926;28;20218;-62
2023/08/19 07:09:16;;;;;;;6.03;4.00;;;;;;;27.53;73.75;96746.50;5042824;28;20205;-64
2023/08/19 07:11:43;;;;;;;5.80;3.90;;;;;;;27.35;71.04;96755.69;5043045;28;20299;-61
2023/08/19 07:14:11;;;;;;;5.80;4.38;;;;;;;27.59;73.92;96746.38;5042882;28;20215;-62
2023/08/19 07:16:37;;;;;;;6.60;4.00;;;;;;;27.84;72.38;96743.22;5042328;28;20216;-63
2023/08/19 07:19:06;;;;;;;3.88;3.58;;;;;;;28.05;73.64;96750.59;5042036;28;20196;-63
2023/08/19 07:21:35;;;;;;;9.30;4.20;;;;;;;27.82;70.97;96752.69;5042680;28;20231;-64
2023/08/19 07:24:02;;;;;;;3.83;3.53;;;;;;;27.78;72.05;96755.06;5046280;28;20208;-64
2023/08/19 07:26:32;;;;;;;5.85;3.90;;;;;;;27.92;70.23;96760.97;5044678;28;20211;-63
2023/08/19 07:28:59;;;;;;;6.43;3.97;;;;;;;28.30;70.13;96757.47;5042665;28;20199;-63
2023/08/19 07:31:26;;;;;;;4.35;3.58;;;;;;;28.20;72.64;96763.59;5042820;28;20320;-62
2023/08/19 07:33:53;;;;;;;6.25;3.88;;;;;;;28.38;72.52;96759.75;5043474;28;20195;-62
2023/08/19 07:36:20;;;;;;;4.40;4.00;;;;;;;28.27;73.54;96747.91;5043225;28;20241;-63
2023/08/19 07:38:47;;;;;;;4.70;3.78;;;;;;;28.40;70.12;96758.44;5042713;28;20210;-62
2023/08/19 07:41:17;;;;;;;4.38;3.90;;;;;;;28.67;71.43;96756.63;5042717;28;20294;-64
2023/08/19 07:43:44;;;;;;;5.22;3.80;;;;;;;28.77;69.16;96763.28;5041985;28;20260;-62
2023/08/19 07:46:15;;;;;;;6.10;4.13;;;;;;;28.64;70.39;96757.09;5043630;28;20238;-60
2023/08/19 07:48:42;;;;;;;4.47;3.80;;;;;;;28.57;72.50;96767.34;5042435;28;20553;-65
2023/08/19 07:51:08;;;;;;;7.05;3.78;;;;;;;28.79;69.31;96766.53;5042197;28;20204;-63
2023/08/19 07:53:35;;;;;;;4.75;3.88;;;;;;;28.91;70.33;96759.88;5040329;28;21416;-62
2023/08/19 07:56:01;;;;;;;6.50;4.25;;;;;;;28.85;67.69;96770.97;5041725;28;20883;-62
2023/08/19 07:58:28;;;;;;;4.22;3.58;;;;;;;29.28;66.89;96761.91;5041200;28;20203;-62
2023/08/19 08:00:56;;;;;;;6.82;4.30;;;;;;;29.43;67.60;96767.50;5042311;28;20195;-61
2023/08/19 08:03:22;;;;;;;5.10;4.30;;;;;;;28.94;64.78;96767.56;5042446;28;20231;-60
2023/08/19 08:05:49;;;;;;;5.25;4.03;;;;;;;29.50;67.64;96774.41;5041871;28;20640;-63
2023/08/19 08:08:15;;;;;;;4.88;3.95;;;;;;;29.54;63.73;96769.25;5041489;28;20199;-63
2023/08/19 08:10:42;;;;;;;7.75;4.38;;;;;;;29.50;64.22;96766.22;5041532;28;20203;-64
2023/08/19 08:13:08;;;;;;;4.80;4.00;;;;;;;29.65;63.82;96765.53;5041263;28;20211;-64
2023/08/19 08:15:35;;;;;;;5.03;4.55;;;;;;;29.31;64.84;96762.22;5040847;28;20212;-61
2023/08/19 08:18:04;;;;;;;7.05;4.22;;;;;;;29.75;66.67;96770.22;5041799;28;20203;-63
2023/08/19 08:20:30;;;;;;;7.65;4.55;;;;;;;29.92;62.74;96765.47;5040950;28;20222;-64
2023/08/19 08:22:57;;;;;;;5.13;4.18;;;;;;;29.90;64.05;96770.38;5041787;28;20203;-62
2023/08/19 08:25:23;;;;;;;5.07;3.90;;;;;;;30.08;61.09;96776.22;5041333;28;20218;-63
2023/08/19 08:27:50;;;;;;;8.18;4.28;;;;;;;30.16;62.58;96765.88;5040894;28;20276;-63
2023/08/19 08:30:17;;;;;;;4.47;4.07;;;;;;;30.30;64.96;96773.34;5042055;28;20222;-64
2023/08/19 08:32:43;;;;;;;6.40;4.70;;;;;;;30.21;62.08;96768.66;5041806;28;20215;-63
2023/08/19 08:35:11;;;;;;;9.27;4.10;;;;;;;30.26;62.64;96761.31;5042099;28;20199;-62
2023/08/19 08:37:37;;;;;;;4.93;3.85;;;;;;;30.38;64.39;96761.09;5041735;28;20671;-62
2023/08/19 08:40:05;;;;;;;6.75;4.00;;;;;;;30.45;62.25;96765.28;5041091;28;20203;-62
2023/08/19 08:42:31;;;;;;;6.63;4.28;;;;;;;30.70;62.06;96761.00;5039451;28;20291;-63
2023/08/19 08:44:59;;;;;;;6.00;4.38;;;;;;;30.76;63.55;96759.91;5042488;28;20219;-63
2023/08/19 08:47:27;;;;;;;6.95;4.65;;;;;;;30.91;61.12;96759.97;5041863;28;20202;-61
2023/08/19 08:49:54;;;;;;;5.97;4.60;;;;;;;30.71;61.94;96762.66;5040933;28;20208;-62
2023/08/19 08:52:21;;;;;;;4.15;3.70;;;;;;;31.08;61.75;96768.78;5040155;28;20647;-62
2023/08/19 08:54:52;;;;;;;6.10;3.97;;;;;;;31.14;60.50;96764.16;5040973;28;20210;-63
2023/08/19 08:57:18;;;;;;;4.72;4.32;;;;;;;31.36;58.93;96762.00;5040223;28;20227;-63
2023/08/19 08:59:45;;;;;;;5.25;4.18;;;;;;;31.54;59.05;96767.78;5040648;28;20692;-63
2023/08/19 09:02:13;;;;;;;4.45;4.05;;;;;;;31.56;58.14;96760.16;5040894;28;20508;-63
2023/08/19 09:04:41;;;;;;;5.53;4.00;;;;;;;31.68;59.07;96759.03;5042256;28;20289;-62
2023/08/19 09:07:10;;;;;;;8.10;4.43;;;;;;;31.80;59.25;96756.84;5044964;28;20214;-64
2023/08/19 09:09:41;;;;;;;6.15;4.00;;;;;;;31.90;57.84;96760.41;5045171;28;20809;-62
2023/08/19 09:12:12;;;;;;;6.47;3.72;;;;;;;31.95;57.05;96765.88;5045767;28;20226;-63
2023/08/19 09:14:41;;;;;;;5.40;4.05;;;;;;;31.86;56.71;96758.47;5044391;28;20191;-62
2023/08/19 09:17:08;;;;;;;5.03;3.70;;;;;;;31.84;56.80;96764.25;5046315;28;20215;-63
2023/08/19 09:19:35;;;;;;;5.95;4.18;;;;;;;32.06;57.01;96755.75;5044956;28;20223;-65
2023/08/19 09:22:10;;;;;;;4.35;3.92;;;;;;;32.06;57.12;96753.81;5045579;28;20226;-64
2023/08/19 09:24:38;;;;;;;4.88;3.83;;;;;;;32.20;56.16;96754.09;5045160;28;20631;-61
2023/08/19 09:27:04;;;;;;;7.00;4.00;;;;;;;32.40;55.38;96753.19;5043106;28;20196;-62
2023/08/19 09:29:31;;;;;;;4.45;4.00;;;;;;;32.47;54.73;96760.03;5044754;28;20199;-62
2023/08/19 09:31:58;;;;;;;5.47;4.38;;;;;;;32.31;53.19;96766.63;5043765;28;20291;-64
2023/08/19 09:34:25;;;;;;;6.28;4.22;;;;;;;32.35;53.14;96754.03;5043198;28;20212;-61
2023/08/19 09:36:54;;;;;;;5.13;3.97;;;;;;;32.60;55.46;96755.06;5043298;28;20231;-62
2023/08/19 09:39:20;;;;;;;4.88;4.15;;;;;;;32.36;54.09;96752.94;5044110;28;20199;-61
2023/08/19 09:41:48;;;;;;;4.47;4.07;;;;;;;32.66;53.22;96753.97;5043306;28;20215;-61
2023/08/19 09:44:15;;;;;;;4.43;3.72;;;;;;;32.68;53.88;96754.50;5044118;28;20640;-62
2023/08/19 09:46:45;;;;;;;5.10;4.35;;;;;;;32.93;54.26;96762.59;5044865;28;20200;-61
2023/08/19 09:49:21;;;;;;;4.50;4.10;;;;;;;32.86;52.06;96754.69;5044480;28;20303;-61
2023/08/19 09:51:59;;;;;;;5.45;4.30;;;;;;;33.03;53.52;96762.53;5044206;28;20290;-66
2023/08/19 09:54:25;;;;;;;4.18;3.88;;;;;;;33.30;52.18;96762.13;5044090;28;20262;-65
2023/08/19 09:56:58;;;;;;;6.03;4.57;;;;;;;33.26;53.87;96753.66;5043890;28;20234;-66
2023/08/19 09:59:26;;;;;;;8.35;4.18;;;;;;;33.15;50.43;96752.09;5043354;28;20234;-64
2023/08/19 10:01:54;;;;;;;4.93;4.28;;;;;;;33.17;50.62;96758.09;5043087;28;20204;-65
2023/08/19 10:04:22;;;;;;;4.68;4.32;;;;;;;33.14;51.05;96753.19;5043614;28;20242;-64
2023/08/19 10:06:51;;;;;;;5.22;4.28;;;;;;;33.43;52.89;96748.59;5044026;28;20617;-65
2023/08/19 10:09:22;;;;;;;5.10;4.07;;;;;;;33.67;51.91;96756.94;5044575;28;20214;-64
2023/08/19 10:11:51;;;;;;;6.78;4.20;;;;;;;33.70;51.27;96761.00;5046328;28;20211;-64
2023/08/19 10:14:22;;;;;;;3.88;3.58;;;;;;;33.72;49.63;96750.59;5047527;28;20294;-59
2023/08/19 10:16:50;;;;;;;4.13;3.72;;;;;;;33.69;48.86;96753.91;5042873;28;20544;-61
2023/08/19 10:19:20;;;;;;;5.53;3.90;;;;;;;33.67;49.09;96745.97;5043299;28;20222;-60
2023/08/19 10:21:49;;;;;;;6.00;3.80;;;;;;;33.83;48.97;96749.41;5043616;28;20208;-61
2023/08/19 10:24:17;;;;;;;5.05;3.45;;;;;;;33.91;47.51;96752.31;5043737;28;20290;-62
2023/08/19 10:26:46;;;;;;;6.18;4.22;;;;;;;33.96;48.92;96745.97;5043503;28;20200;-62
2023/08/19 10:29:13;;;;;;;3.60;3.30;;;;;;;34.26;47.43;96742.13;5045380;28;20200;-61
2023/08/19 10:31:43;;;;;;;3.97;3.22;;;;;;;34.22;46.71;96747.41;5048319;28;20208;-62
2023/08/19 10:34:11;;;;;;;3.65;3.35;;;;;;;34.04;44.91;96744.53;5048161;28;20199;-65
2023/08/19 10:36:39;;;;;;;5.90;3.20;;;;;;;33.99;42.86;96748.13;5044524;28;20284;-64
2023/08/19 10:39:17;;;;;;;5.03;3.33;;;;;;;34.08;47.90;96737.34;5044439;28;20201;-65
2023/08/19 10:41:46;;;;;;;4.43;3.40;;;;;;;34.26;44.82;96739.41;5042969;28;20335;-63
2023/08/19 10:44:13;;;;;;;3.50;3.20;;;;;;;34.09;46.72;96737.03;5043923;28;20231;-62
2023/08/19 10:46:42;;;;;;;5.07;3.28;;;;;;;33.98;44.27;96738.25;5043048;28;20204;-64
2023/08/19 10:49:13;;;;;;;5.85;3.30;;;;;;;33.86;44.64;96738.66;5044707;28;20222;-63
2023/08/19 10:51:47;;;;;;;4.60;3.20;;;;;;;34.00;42.72;96733.31;5043632;28;20231;-64
2023/08/19 10:54:14;;;;;;;5.20;3.42;;;;;;;33.91;44.75;96735.84;5043994;28;20265;-65
2023/08/19 10:56:45;;;;;;;4.25;3.80;;;;;;;33.92;47.18;96736.69;5042332;28;20231;-64
2023/08/19 10:59:11;;;;;;;7.32;3.42;;;;;;;34.08;45.80;96738.19;5041575;28;20234;-66
2023/08/19 11:01:42;;;;;;;4.90;3.50;;;;;;;34.08;43.34;96723.63;5043179;28;20203;-68
2023/08/19 11:04:08;;;;;;;4.95;3.83;;;;;;;34.06;43.14;96732.13;5041955;28;20331;-63
2023/08/19 11:06:35;;;;;;;6.03;3.72;;;;;;;33.97;42.31;96734.72;5043109;28;20207;-64
2023/08/19 11:09:02;;;;;;;5.45;3.72;;;;;;;34.09;41.20;96717.84;5042303;28;20219;-65
2023/08/19 11:11:29;;;;;;;5.70;3.38;;;;;;;34.20;41.24;96724.88;5041616;28;20221;-64
2023/08/19 11:13:56;;;;;;;5.45;3.80;;;;;;;34.49;42.81;96724.81;5043262;28;20218;-64
2023/08/19 11:16:25;;;;;;;5.00;3.60;;;;;;;34.44;41.70;96722.94;5042935;28;20208;-64
2023/08/19 11:18:54;;;;;;;5.95;3.58;;;;;;;34.65;41.24;96718.06;5042926;28;20195;-64
2023/08/19 11:21:20;;;;;;;4.15;3.30;;;;;;;35.00;41.49;96719.53;5041118;28;20223;-64
2023/08/19 11:23:48;;;;;;;8.27;3.55;;;;;;;35.13;41.88;96718.81;5042455;28;20294;-65
2023/08/19 11:26:14;;;;;;;3.85;3.33;;;;;;;35.25;40.76;96716.41;5043137;28;20272;-65
2023/08/19 11:28:41;;;;;;;4.90;3.72;;;;;;;35.24;43.43;96720.28;5043568;28;20195;-64
2023/08/19 11:31:08;;;;;;;4.35;3.42;;;;;;;35.27;42.27;96714.19;5043419;28;20647;-65